sensor_id;sensor_type;location;lat;lon;timestamp;pressure;altitude;pressure_sealevel;temperature;humidity
3096;BME280;1558;42.700;23.360;2024-02-15T00:02:05;95749.13;;;3.79;93.63
3096;BME280;1558;42.700;23.360;2024-02-15T00:04:35;95721.47;;;3.70;93.61
3096;BME280;1558;42.700;23.360;2024-02-15T00:07:04;95732.91;;;3.75;93.26
3096;BME280;1558;42.700;23.360;2024-02-15T00:09:32;95735.59;;;3.70;92.85
3096;BME280;1558;42.700;23.360;2024-02-15T00:12:00;95745.94;;;3.77;92.96
3096;BME280;1558;42.700;23.360;2024-02-15T00:14:29;95741.69;;;3.76;93.09
3096;BME280;1558;42.700;23.360;2024-02-15T00:16:58;95742.75;;;3.80;92.90
3096;BME280;1558;42.700;23.360;2024-02-15T00:19:26;95737.44;;;3.75;92.62
3096;BME280;1558;42.700;23.360;2024-02-15T00:21:58;95746.50;;;3.74;92.61
3096;BME280;1558;42.700;23.360;2024-02-15T00:24:26;95748.63;;;3.77;92.52
3096;BME280;1558;42.700;23.360;2024-02-15T00:26:54;95754.75;;;3.77;92.97
3096;BME280;1558;42.700;23.360;2024-02-15T00:29:23;95764.63;;;3.77;92.81
3096;BME280;1558;42.700;23.360;2024-02-15T00:31:51;95754.97;;;3.81;92.59
3096;BME280;1558;42.700;23.360;2024-02-15T00:34:20;95758.25;;;3.73;92.54
3096;BME280;1558;42.700;23.360;2024-02-15T00:36:49;95710.69;;;3.46;92.94
3096;BME280;1558;42.700;23.360;2024-02-15T00:39:18;95743.88;;;3.64;93.04
3096;BME280;1558;42.700;23.360;2024-02-15T00:41:46;95758.25;;;3.73;92.68
3096;BME280;1558;42.700;23.360;2024-02-15T00:44:15;95759.84;;;3.74;93.57
3096;BME280;1558;42.700;23.360;2024-02-15T00:46:44;95764.66;;;3.72;93.41
3096;BME280;1558;42.700;23.360;2024-02-15T00:49:15;95755.84;;;3.71;93.37
3096;BME280;1558;42.700;23.360;2024-02-15T00:51:43;95746.53;;;3.69;93.66
3096;BME280;1558;42.700;23.360;2024-02-15T00:54:12;95740.72;;;3.57;93.20
3096;BME280;1558;42.700;23.360;2024-02-15T00:56:41;95755.63;;;3.68;92.75
3096;BME280;1558;42.700;23.360;2024-02-15T00:59:10;95742.31;;;3.63;93.13
3096;BME280;1558;42.700;23.360;2024-02-15T01:01:38;95758.53;;;3.66;93.51
3096;BME280;1558;42.700;23.360;2024-02-15T01:04:07;95753.47;;;3.70;93.77
3096;BME280;1558;42.700;23.360;2024-02-15T01:06:36;95756.44;;;3.68;92.95
3096;BME280;1558;42.700;23.360;2024-02-15T01:09:04;95715.50;;;3.44;93.00
3096;BME280;1558;42.700;23.360;2024-02-15T01:11:32;95747.09;;;3.66;92.99
3096;BME280;1558;42.700;23.360;2024-02-15T01:14:03;95755.09;;;3.66;92.63
3096;BME280;1558;42.700;23.360;2024-02-15T01:16:31;95752.44;;;3.66;93.10
3096;BME280;1558;42.700;23.360;2024-02-15T01:19:00;95755.34;;;3.64;92.89
3096;BME280;1558;42.700;23.360;2024-02-15T01:21:28;95752.72;;;3.59;93.21
3096;BME280;1558;42.700;23.360;2024-02-15T01:23:56;95739.97;;;3.56;93.82
3096;BME280;1558;42.700;23.360;2024-02-15T01:26:27;95740.22;;;3.55;93.71
3096;BME280;1558;42.700;23.360;2024-02-15T01:28:55;95744.47;;;3.61;93.27
3096;BME280;1558;42.700;23.360;2024-02-15T01:31:25;95747.38;;;3.59;93.68
3096;BME280;1558;42.700;23.360;2024-02-15T01:33:53;95751.94;;;3.59;93.73
3096;BME280;1558;42.700;23.360;2024-02-15T01:36:21;95737.56;;;3.55;93.65
3096;BME280;1558;42.700;23.360;2024-02-15T01:38:49;95751.34;;;3.67;93.29
3096;BME280;1558;42.700;23.360;2024-02-15T01:41:17;95755.34;;;3.69;93.37
3096;BME280;1558;42.700;23.360;2024-02-15T01:43:46;95755.09;;;3.66;93.20
3096;BME280;1558;42.700;23.360;2024-02-15T01:46:14;95759.09;;;3.68;93.32
3096;BME280;1558;42.700;23.360;2024-02-15T01:48:45;95743.41;;;3.57;93.07
3096;BME280;1558;42.700;23.360;2024-02-15T01:51:15;95747.88;;;3.66;92.71
3096;BME280;1558;42.700;23.360;2024-02-15T01:53:44;95734.16;;;3.44;93.00
3096;BME280;1558;42.700;23.360;2024-02-15T01:56:15;95749.78;;;3.61;93.53
3096;BME280;1558;42.700;23.360;2024-02-15T01:58:45;95752.69;;;3.64;93.85
3096;BME280;1558;42.700;23.360;2024-02-15T02:01:14;95752.97;;;3.63;93.00
3096;BME280;1558;42.700;23.360;2024-02-15T02:03:43;95753.50;;;3.65;93.12
3096;BME280;1558;42.700;23.360;2024-02-15T02:06:13;95744.78;;;3.54;93.33
3096;BME280;1558;42.700;23.360;2024-02-15T02:08:41;95708.91;;;3.31;92.86
3096;BME280;1558;42.700;23.360;2024-02-15T02:11:10;95759.94;;;3.59;93.63
3096;BME280;1558;42.700;23.360;2024-02-15T02:13:38;95764.22;;;3.55;93.09
3096;BME280;1558;42.700;23.360;2024-02-15T02:16:24;95765.34;;;3.49;93.76
3096;BME280;1558;42.700;23.360;2024-02-15T02:18:52;95722.25;;;3.26;93.92
3096;BME280;1558;42.700;23.360;2024-02-15T02:21:22;95739.81;;;3.32;94.33
3096;BME280;1558;42.700;23.360;2024-02-15T02:23:53;95687.75;;;3.01;94.60
3096;BME280;1558;42.700;23.360;2024-02-15T02:26:25;95769.06;;;3.42;94.86
3096;BME280;1558;42.700;23.360;2024-02-15T02:28:53;95739.84;;;3.27;94.25
3096;BME280;1558;42.700;23.360;2024-02-15T02:31:21;95768.56;;;3.35;95.00
3096;BME280;1558;42.700;23.360;2024-02-15T02:33:52;95765.38;;;3.38;94.46
3096;BME280;1558;42.700;23.360;2024-02-15T02:36:21;95768.31;;;3.42;94.80
3096;BME280;1558;42.700;23.360;2024-02-15T02:38:53;95747.84;;;3.27;94.69
3096;BME280;1558;42.700;23.360;2024-02-15T02:41:22;95778.69;;;3.38;95.32
3096;BME280;1558;42.700;23.360;2024-02-15T02:43:51;95771.22;;;3.40;95.82
3096;BME280;1558;42.700;23.360;2024-02-15T02:46:20;95770.69;;;3.43;95.58
3096;BME280;1558;42.700;23.360;2024-02-15T02:48:48;95768.03;;;3.43;95.76
3096;BME280;1558;42.700;23.360;2024-02-15T02:51:16;95769.88;;;3.43;95.54
3096;BME280;1558;42.700;23.360;2024-02-15T02:53:45;95772.06;;;3.36;95.61
3096;BME280;1558;42.700;23.360;2024-02-15T02:56:13;95740.44;;;3.14;95.64
3096;BME280;1558;42.700;23.360;2024-02-15T02:58:42;95723.94;;;3.07;95.56
3096;BME280;1558;42.700;23.360;2024-02-15T03:01:11;95638.19;;;2.46;95.51
3096;BME280;1558;42.700;23.360;2024-02-15T03:03:40;95764.41;;;3.19;95.73
3096;BME280;1558;42.700;23.360;2024-02-15T03:06:09;95776.59;;;3.30;96.56
3096;BME280;1558;42.700;23.360;2024-02-15T03:08:38;95774.75;;;3.26;96.20
3096;BME280;1558;42.700;23.360;2024-02-15T03:11:06;95779.84;;;3.22;96.96
3096;BME280;1558;42.700;23.360;2024-02-15T03:13:34;95760.72;;;3.10;96.62
3096;BME280;1558;42.700;23.360;2024-02-15T03:16:02;95763.09;;;3.07;97.38
3096;BME280;1558;42.700;23.360;2024-02-15T03:18:33;95784.13;;;3.18;97.37
3096;BME280;1558;42.700;23.360;2024-02-15T03:21:02;95782.53;;;3.17;97.78
3096;BME280;1558;42.700;23.360;2024-02-15T03:23:31;95791.03;;;3.19;97.39
3096;BME280;1558;42.700;23.360;2024-02-15T03:26:01;95790.00;;;3.20;97.10
3096;BME280;1558;42.700;23.360;2024-02-15T03:28:30;95798.53;;;3.17;97.96
3096;BME280;1558;42.700;23.360;2024-02-15T03:30:58;95787.06;;;3.17;98.23
3096;BME280;1558;42.700;23.360;2024-02-15T03:33:28;95791.34;;;3.18;97.59
3096;BME280;1558;42.700;23.360;2024-02-15T03:36:02;95798.53;;;3.17;97.84
3096;BME280;1558;42.700;23.360;2024-02-15T03:38:32;95791.63;;;3.11;97.82
3096;BME280;1558;42.700;23.360;2024-02-15T03:41:00;95767.69;;;2.91;98.72
3096;BME280;1558;42.700;23.360;2024-02-15T03:43:29;95787.13;;;3.02;97.82
3096;BME280;1558;42.700;23.360;2024-02-15T03:45:57;95791.38;;;3.03;98.48
3096;BME280;1558;42.700;23.360;2024-02-15T03:48:25;95785.25;;;2.97;98.47
3096;BME280;1558;42.700;23.360;2024-02-15T03:50:53;95780.75;;;2.88;98.95
3096;BME280;1558;42.700;23.360;2024-02-15T03:53:24;95784.72;;;2.95;99.43
3096;BME280;1558;42.700;23.360;2024-02-15T03:55:52;95790.88;;;2.96;99.16
3096;BME280;1558;42.700;23.360;2024-02-15T03:58:21;95789.28;;;2.95;99.61
3096;BME280;1558;42.700;23.360;2024-02-15T04:00:49;95778.38;;;2.81;99.36
3096;BME280;1558;42.700;23.360;2024-02-15T04:03:17;95789.53;;;2.88;100.00
3096;BME280;1558;42.700;23.360;2024-02-15T04:05:46;95794.88;;;2.88;100.00
3096;BME280;1558;42.700;23.360;2024-02-15T04:08:15;95791.97;;;2.90;100.00
3096;BME280;1558;42.700;23.360;2024-02-15T04:10:47;95793.53;;;2.91;100.00
3096;BME280;1558;42.700;23.360;2024-02-15T04:13:19;95796.22;;;2.86;99.94
3096;BME280;1558;42.700;23.360;2024-02-15T04:15:47;95792.72;;;2.90;99.87
3096;BME280;1558;42.700;23.360;2024-02-15T04:18:17;95784.81;;;2.75;100.00
3096;BME280;1558;42.700;23.360;2024-02-15T04:20:45;95798.34;;;2.84;100.00
3096;BME280;1558;42.700;23.360;2024-02-15T04:23:15;95796.50;;;2.84;100.00
3096;BME280;1558;42.700;23.360;2024-02-15T04:25:43;95793.31;;;2.82;100.00
3096;BME280;1558;42.700;23.360;2024-02-15T04:28:19;95787.47;;;2.75;100.00
3096;BME280;1558;42.700;23.360;2024-02-15T04:30:47;95798.63;;;2.82;100.00
3096;BME280;1558;42.700;23.360;2024-02-15T04:33:15;95792.22;;;2.83;100.00
3096;BME280;1558;42.700;23.360;2024-02-15T04:35:44;95799.16;;;2.84;100.00
3096;BME280;1558;42.700;23.360;2024-02-15T04:38:12;95809.00;;;2.84;99.98
3096;BME280;1558;42.700;23.360;2024-02-15T04:40:40;95814.31;;;2.84;100.00
3096;BME280;1558;42.700;23.360;2024-02-15T04:43:08;95811.94;;;2.82;100.00
3096;BME280;1558;42.700;23.360;2024-02-15T04:45:38;95811.66;;;2.84;100.00
3096;BME280;1558;42.700;23.360;2024-02-15T04:48:06;95766.72;;;2.57;100.00
3096;BME280;1558;42.700;23.360;2024-02-15T04:50:35;95813.50;;;2.88;100.00
3096;BME280;1558;42.700;23.360;2024-02-15T04:53:04;95757.44;;;2.49;100.00
3096;BME280;1558;42.700;23.360;2024-02-15T04:55:34;95810.63;;;2.80;100.00
3096;BME280;1558;42.700;23.360;2024-02-15T04:58:03;95814.63;;;2.67;100.00
3096;BME280;1558;42.700;23.360;2024-02-15T05:00:32;95827.13;;;2.77;100.00
3096;BME280;1558;42.700;23.360;2024-02-15T05:03:02;95828.75;;;2.72;100.00
3096;BME280;1558;42.700;23.360;2024-02-15T05:05:32;95834.88;;;2.78;100.00
3096;BME280;1558;42.700;23.360;2024-02-15T05:08:02;95842.84;;;2.78;100.00
3096;BME280;1558;42.700;23.360;2024-02-15T05:10:30;95839.38;;;2.78;100.00
3096;BME280;1558;42.700;23.360;2024-02-15T05:12:59;95842.59;;;2.74;100.00
3096;BME280;1558;42.700;23.360;2024-02-15T05:15:28;95833.53;;;2.70;100.00
3096;BME280;1558;42.700;23.360;2024-02-15T05:17:56;95838.88;;;2.65;100.00
3096;BME280;1558;42.700;23.360;2024-02-15T05:20:26;95841.53;;;2.70;100.00
3096;BME280;1558;42.700;23.360;2024-02-15T05:22:54;95833.78;;;2.64;100.00
3096;BME280;1558;42.700;23.360;2024-02-15T05:25:22;95831.69;;;2.66;100.00
3096;BME280;1558;42.700;23.360;2024-02-15T05:27:53;95844.44;;;2.69;100.00
3096;BME280;1558;42.700;23.360;2024-02-15T05:30:24;95839.41;;;2.67;100.00
3096;BME280;1558;42.700;23.360;2024-02-15T05:32:52;95858.84;;;2.73;100.00
3096;BME280;1558;42.700;23.360;2024-02-15T05:35:22;95841.78;;;2.64;100.00
3096;BME280;1558;42.700;23.360;2024-02-15T05:37:53;95851.38;;;2.70;100.00
3096;BME280;1558;42.700;23.360;2024-02-15T05:40:21;95858.84;;;2.68;100.00
3096;BME280;1558;42.700;23.360;2024-02-15T05:42:55;95859.38;;;2.65;100.00
3096;BME280;1558;42.700;23.360;2024-02-15T05:45:30;95833.03;;;2.53;100.00
3096;BME280;1558;42.700;23.360;2024-02-15T05:48:05;95869.50;;;2.73;100.00
3096;BME280;1558;42.700;23.360;2024-02-15T05:50:36;95855.38;;;2.62;100.00
3096;BME280;1558;42.700;23.360;2024-02-15T05:53:06;95865.50;;;2.70;100.00
3096;BME280;1558;42.700;23.360;2024-02-15T05:55:35;95867.59;;;2.73;100.00
3096;BME280;1558;42.700;23.360;2024-02-15T05:58:04;95881.19;;;2.72;100.00
3096;BME280;1558;42.700;23.360;2024-02-15T06:00:35;95847.94;;;2.44;100.00
3096;BME280;1558;42.700;23.360;2024-02-15T06:03:02;95881.19;;;2.72;100.00
3096;BME280;1558;42.700;23.360;2024-02-15T06:05:31;95855.09;;;2.69;100.00
3096;BME280;1558;42.700;23.360;2024-02-15T06:07:59;95878.78;;;2.81;100.00
3096;BME280;1558;42.700;23.360;2024-02-15T06:10:29;95885.44;;;2.83;100.00
3096;BME280;1558;42.700;23.360;2024-02-15T06:12:57;95887.03;;;2.84;100.00
3096;BME280;1558;42.700;23.360;2024-02-15T06:15:26;95902.22;;;2.89;100.00
3096;BME280;1558;42.700;23.360;2024-02-15T06:17:54;95903.56;;;2.86;100.00
3096;BME280;1558;42.700;23.360;2024-02-15T06:20:24;95900.59;;;2.88;100.00
3096;BME280;1558;42.700;23.360;2024-02-15T06:22:55;95903.81;;;2.95;100.00
3096;BME280;1558;42.700;23.360;2024-02-15T06:25:23;95906.22;;;3.01;100.00
3096;BME280;1558;42.700;23.360;2024-02-15T06:27:53;95918.44;;;3.07;99.90
3096;BME280;1558;42.700;23.360;2024-02-15T06:30:26;95899.78;;;3.07;100.00
3096;BME280;1558;42.700;23.360;2024-02-15T06:33:11;95895.00;;;3.09;99.90
3096;BME280;1558;42.700;23.360;2024-02-15T06:35:57;95908.59;;;3.08;99.46
3096;BME280;1558;42.700;23.360;2024-02-15T06:38:43;95911.00;;;3.04;98.88
3096;BME280;1558;42.700;23.360;2024-02-15T06:41:29;95915.53;;;3.09;98.53
3096;BME280;1558;42.700;23.360;2024-02-15T06:43:58;95921.09;;;3.02;99.32
3096;BME280;1558;42.700;23.360;2024-02-15T06:46:26;95922.19;;;3.01;99.53
3096;BME280;1558;42.700;23.360;2024-02-15T06:48:54;95925.91;;;3.10;100.00
3096;BME280;1558;42.700;23.360;2024-02-15T06:51:25;95931.47;;;3.19;99.22
3096;BME280;1558;42.700;23.360;2024-02-15T06:53:53;95926.91;;;3.45;98.86
3096;BME280;1558;42.700;23.360;2024-02-15T06:56:23;95929.97;;;3.87;97.88
3096;BME280;1558;42.700;23.360;2024-02-15T06:58:51;95920.88;;;4.42;95.45
3096;BME280;1558;42.700;23.360;2024-02-15T07:01:23;95917.91;;;5.16;90.95
3096;BME280;1558;42.700;23.360;2024-02-15T07:03:52;95913.03;;;5.46;86.53
3096;BME280;1558;42.700;23.360;2024-02-15T07:06:25;95907.56;;;6.04;83.85
3096;BME280;1558;42.700;23.360;2024-02-15T07:08:54;95897.00;;;5.94;81.83
3096;BME280;1558;42.700;23.360;2024-02-15T07:11:25;95891.34;;;5.95;79.51
3096;BME280;1558;42.700;23.360;2024-02-15T07:13:53;95905.44;;;6.25;79.56
3096;BME280;1558;42.700;23.360;2024-02-15T07:16:23;95909.31;;;6.69;78.41
3096;BME280;1558;42.700;23.360;2024-02-15T07:18:51;95882.06;;;6.81;75.97
3096;BME280;1558;42.700;23.360;2024-02-15T07:21:20;95908.28;;;6.84;73.02
3096;BME280;1558;42.700;23.360;2024-02-15T07:23:53;95916.22;;;6.38;74.41
3096;BME280;1558;42.700;23.360;2024-02-15T07:26:23;95891.66;;;6.50;75.02
3096;BME280;1558;42.700;23.360;2024-02-15T07:28:53;95839.09;;;6.35;73.86
3096;BME280;1558;42.700;23.360;2024-02-15T07:31:27;95904.00;;;6.83;72.13
3096;BME280;1558;42.700;23.360;2024-02-15T07:33:56;95887.50;;;6.76;72.59
3096;BME280;1558;42.700;23.360;2024-02-15T07:36:25;95849.81;;;6.86;72.06
3096;BME280;1558;42.700;23.360;2024-02-15T07:38:54;95907.00;;;7.27;71.17
3096;BME280;1558;42.700;23.360;2024-02-15T07:41:24;95901.47;;;7.37;71.83
3096;BME280;1558;42.700;23.360;2024-02-15T07:43:52;95893.72;;;7.49;69.77
3096;BME280;1558;42.700;23.360;2024-02-15T07:46:24;95864.72;;;6.92;68.50
3096;BME280;1558;42.700;23.360;2024-02-15T07:48:52;95888.22;;;7.27;70.18
3096;BME280;1558;42.700;23.360;2024-02-15T07:51:22;95885.28;;;7.42;69.08
3096;BME280;1558;42.700;23.360;2024-02-15T07:53:52;95898.31;;;7.49;67.65
3096;BME280;1558;42.700;23.360;2024-02-15T07:56:20;95903.97;;;7.47;68.61
3096;BME280;1558;42.700;23.360;2024-02-15T07:58:49;95892.66;;;7.64;68.24
3096;BME280;1558;42.700;23.360;2024-02-15T08:01:20;95892.81;;;8.22;67.00
3096;BME280;1558;42.700;23.360;2024-02-15T08:03:52;95889.38;;;8.08;66.46
3096;BME280;1558;42.700;23.360;2024-02-15T08:06:22;95890.56;;;8.29;66.44
3096;BME280;1558;42.700;23.360;2024-02-15T08:08:55;95880.44;;;7.72;65.52
3096;BME280;1558;42.700;23.360;2024-02-15T08:11:23;95887.84;;;8.15;65.62
3096;BME280;1558;42.700;23.360;2024-02-15T08:13:53;95869.69;;;7.72;67.17
3096;BME280;1558;42.700;23.360;2024-02-15T08:16:26;95870.47;;;7.99;66.19
3096;BME280;1558;42.700;23.360;2024-02-15T08:18:56;95876.44;;;8.59;66.37
3096;BME280;1558;42.700;23.360;2024-02-15T08:21:25;95882.44;;;9.01;65.48
3096;BME280;1558;42.700;23.360;2024-02-15T08:23:56;95882.56;;;8.96;62.47
3096;BME280;1558;42.700;23.360;2024-02-15T08:26:25;95878.88;;;8.69;61.36
3096;BME280;1558;42.700;23.360;2024-02-15T08:28:53;95874.97;;;8.53;62.32
3096;BME280;1558;42.700;23.360;2024-02-15T08:31:23;95832.44;;;8.55;62.48
3096;BME280;1558;42.700;23.360;2024-02-15T08:33:51;95879.59;;;9.28;62.10
3096;BME280;1558;42.700;23.360;2024-02-15T08:36:21;95879.41;;;9.24;61.48
3096;BME280;1558;42.700;23.360;2024-02-15T08:38:50;95874.50;;;8.96;61.41
3096;BME280;1558;42.700;23.360;2024-02-15T08:41:18;95859.34;;;9.70;60.91
3096;BME280;1558;42.700;23.360;2024-02-15T08:43:47;95875.69;;;9.42;58.67
3096;BME280;1558;42.700;23.360;2024-02-15T08:46:16;95876.94;;;9.67;60.29
3096;BME280;1558;42.700;23.360;2024-02-15T08:48:44;95872.50;;;9.71;58.50
3096;BME280;1558;42.700;23.360;2024-02-15T08:51:13;95834.59;;;9.20;58.68
3096;BME280;1558;42.700;23.360;2024-02-15T08:53:44;95867.19;;;9.88;58.63
3096;BME280;1558;42.700;23.360;2024-02-15T08:56:12;95867.84;;;10.02;58.00
3096;BME280;1558;42.700;23.360;2024-02-15T08:58:41;95870.34;;;9.90;56.97
3096;BME280;1558;42.700;23.360;2024-02-15T09:01:09;95864.63;;;9.83;57.52
3096;BME280;1558;42.700;23.360;2024-02-15T09:03:40;95866.69;;;9.47;57.08
3096;BME280;1558;42.700;23.360;2024-02-15T09:06:08;95876.44;;;9.34;57.57
3096;BME280;1558;42.700;23.360;2024-02-15T09:08:37;95848.09;;;9.28;59.02
3096;BME280;1558;42.700;23.360;2024-02-15T09:11:07;95864.63;;;9.92;58.47
3096;BME280;1558;42.700;23.360;2024-02-15T09:13:39;95857.56;;;9.65;57.65
3096;BME280;1558;42.700;23.360;2024-02-15T09:16:07;95857.41;;;9.62;57.86
3096;BME280;1558;42.700;23.360;2024-02-15T09:18:35;95862.59;;;9.89;57.75
3096;BME280;1558;42.700;23.360;2024-02-15T09:21:04;95853.00;;;10.13;57.74
3096;BME280;1558;42.700;23.360;2024-02-15T09:23:33;95851.31;;;10.69;57.11
3096;BME280;1558;42.700;23.360;2024-02-15T09:26:01;95850.47;;;11.03;55.97
3096;BME280;1558;42.700;23.360;2024-02-15T09:28:31;95852.00;;;11.29;56.24
3096;BME280;1558;42.700;23.360;2024-02-15T09:30:59;95849.41;;;11.41;54.32
3096;BME280;1558;42.700;23.360;2024-02-15T09:33:28;95848.09;;;11.10;53.23
3096;BME280;1558;42.700;23.360;2024-02-15T09:35:56;95814.66;;;10.59;53.13
3096;BME280;1558;42.700;23.360;2024-02-15T09:38:25;95852.31;;;9.99;55.12
3096;BME280;1558;42.700;23.360;2024-02-15T09:40:53;95847.47;;;10.70;55.37
3096;BME280;1558;42.700;23.360;2024-02-15T09:43:22;95839.69;;;10.77;54.13
3096;BME280;1558;42.700;23.360;2024-02-15T09:45:54;95843.81;;;11.00;53.01
3096;BME280;1558;42.700;23.360;2024-02-15T09:48:25;95838.06;;;11.10;52.76
3096;BME280;1558;42.700;23.360;2024-02-15T09:50:54;95826.59;;;11.30;53.44
3096;BME280;1558;42.700;23.360;2024-02-15T09:53:23;95831.59;;;11.95;52.73
3096;BME280;1558;42.700;23.360;2024-02-15T09:55:53;95816.84;;;12.13;52.00
3096;BME280;1558;42.700;23.360;2024-02-15T09:58:22;95822.63;;;11.74;51.54
3096;BME280;1558;42.700;23.360;2024-02-15T10:00:50;95827.84;;;11.79;52.04
3096;BME280;1558;42.700;23.360;2024-02-15T10:03:21;95818.97;;;11.79;51.76
3096;BME280;1558;42.700;23.360;2024-02-15T10:05:50;95816.09;;;11.75;51.49
3096;BME280;1558;42.700;23.360;2024-02-15T10:08:19;95811.84;;;12.24;51.87
3096;BME280;1558;42.700;23.360;2024-02-15T10:11:05;95816.06;;;12.54;50.76
3096;BME280;1558;42.700;23.360;2024-02-15T10:13:33;95805.56;;;12.73;50.79
3096;BME280;1558;42.700;23.360;2024-02-15T10:16:14;95800.69;;;13.00;49.56
3096;BME280;1558;42.700;23.360;2024-02-15T10:18:44;95799.19;;;12.57;48.81
3096;BME280;1558;42.700;23.360;2024-02-15T10:21:26;95802.78;;;12.20;49.36
3096;BME280;1558;42.700;23.360;2024-02-15T10:24:05;95806.38;;;11.83;49.67
3096;BME280;1558;42.700;23.360;2024-02-15T10:26:35;95725.84;;;11.38;49.49
3096;BME280;1558;42.700;23.360;2024-02-15T10:29:08;95790.53;;;11.64;49.76
3096;BME280;1558;42.700;23.360;2024-02-15T10:31:38;95780.44;;;11.52;50.04
3096;BME280;1558;42.700;23.360;2024-02-15T10:34:13;95747.47;;;11.68;50.87
3096;BME280;1558;42.700;23.360;2024-02-15T10:36:42;95781.75;;;12.26;49.65
3096;BME280;1558;42.700;23.360;2024-02-15T10:39:11;95778.16;;;11.92;49.35
3096;BME280;1558;42.700;23.360;2024-02-15T10:41:45;95771.66;;;12.14;49.44
3096;BME280;1558;42.700;23.360;2024-02-15T10:44:16;95780.28;;;12.49;48.81
3096;BME280;1558;42.700;23.360;2024-02-15T10:46:46;95774.28;;;12.43;48.50
3096;BME280;1558;42.700;23.360;2024-02-15T10:49:23;95770.13;;;12.46;48.58
3096;BME280;1558;42.700;23.360;2024-02-15T10:51:57;95767.66;;;12.41;47.83
3096;BME280;1558;42.700;23.360;2024-02-15T10:54:41;95770.13;;;12.25;47.44
3096;BME280;1558;42.700;23.360;2024-02-15T10:57:11;95768.44;;;12.20;47.92
3096;BME280;1558;42.700;23.360;2024-02-15T10:59:48;95724.81;;;11.81;48.46
3096;BME280;1558;42.700;23.360;2024-02-15T11:02:26;95755.25;;;12.19;47.78
3096;BME280;1558;42.700;23.360;2024-02-15T11:05:01;95764.13;;;12.40;47.96
3096;BME280;1558;42.700;23.360;2024-02-15T11:07:31;95756.25;;;12.68;48.01
3096;BME280;1558;42.700;23.360;2024-02-15T11:10:00;95756.41;;;12.30;47.67
3096;BME280;1558;42.700;23.360;2024-02-15T11:12:31;95751.25;;;11.96;47.77
3096;BME280;1558;42.700;23.360;2024-02-15T11:15:00;95749.41;;;12.29;48.54
3096;BME280;1558;42.700;23.360;2024-02-15T11:17:47;95743.31;;;12.73;47.45
3096;BME280;1558;42.700;23.360;2024-02-15T11:20:49;95743.75;;;12.75;48.47
3096;BME280;1558;42.700;23.360;2024-02-15T11:23:26;95740.72;;;13.10;46.83
3096;BME280;1558;42.700;23.360;2024-02-15T11:25:58;95702.03;;;12.88;46.71
3096;BME280;1558;42.700;23.360;2024-02-15T11:28:40;95744.03;;;12.95;47.17
3096;BME280;1558;42.700;23.360;2024-02-15T11:31:52;95739.38;;;13.16;46.58
3096;BME280;1558;42.700;23.360;2024-02-15T11:34:43;95738.19;;;12.60;47.81
3096;BME280;1558;42.700;23.360;2024-02-15T11:37:50;95730.28;;;13.00;47.81
3096;BME280;1558;42.700;23.360;2024-02-15T11:40:20;95743.63;;;13.05;47.32
3096;BME280;1558;42.700;23.360;2024-02-15T11:42:51;95722.47;;;12.98;47.21
3096;BME280;1558;42.700;23.360;2024-02-15T11:45:20;95719.75;;;13.31;47.19
3096;BME280;1558;42.700;23.360;2024-02-15T11:47:50;95726.50;;;13.25;46.49
3096;BME280;1558;42.700;23.360;2024-02-15T11:50:20;95725.72;;;12.79;46.56
3096;BME280;1558;42.700;23.360;2024-02-15T11:52:51;95718.28;;;12.88;47.96
3096;BME280;1558;42.700;23.360;2024-02-15T11:55:20;95715.00;;;13.28;46.56
3096;BME280;1558;42.700;23.360;2024-02-15T11:57:56;95713.34;;;12.90;47.94
3096;BME280;1558;42.700;23.360;2024-02-15T12:00:30;95714.09;;;12.79;47.90
3096;BME280;1558;42.700;23.360;2024-02-15T12:03:16;95714.53;;;13.14;47.99
3096;BME280;1558;42.700;23.360;2024-02-15T12:06:03;95702.75;;;12.98;47.39
3096;BME280;1558;42.700;23.360;2024-02-15T12:08:52;95712.06;;;13.21;47.00
3096;BME280;1558;42.700;23.360;2024-02-15T12:11:38;95700.34;;;12.84;47.76
3096;BME280;1558;42.700;23.360;2024-02-15T12:17:47;95713.41;;;12.37;48.72
3096;BME280;1558;42.700;23.360;2024-02-15T12:20:33;95677.09;;;12.71;48.42
3096;BME280;1558;42.700;23.360;2024-02-15T12:23:02;95700.13;;;12.89;48.81
3096;BME280;1558;42.700;23.360;2024-02-15T12:25:36;95706.44;;;12.48;48.37
3096;BME280;1558;42.700;23.360;2024-02-15T12:28:05;95700.91;;;12.77;49.17
3096;BME280;1558;42.700;23.360;2024-02-15T12:30:34;95698.88;;;12.86;48.17
3096;BME280;1558;42.700;23.360;2024-02-15T12:33:12;95701.41;;;13.04;48.33
3096;BME280;1558;42.700;23.360;2024-02-15T12:35:47;95696.38;;;12.81;47.44
3096;BME280;1558;42.700;23.360;2024-02-15T12:38:17;95692.94;;;12.93;48.32
3096;BME280;1558;42.700;23.360;2024-02-15T12:40:47;95700.75;;;13.55;48.87
3096;BME280;1558;42.700;23.360;2024-02-15T12:43:15;95693.97;;;13.73;46.97
3096;BME280;1558;42.700;23.360;2024-02-15T12:45:43;95680.44;;;13.37;46.42
3096;BME280;1558;42.700;23.360;2024-02-15T12:48:11;95686.53;;;13.46;47.60
3096;BME280;1558;42.700;23.360;2024-02-15T12:50:42;95684.31;;;13.36;46.76
3096;BME280;1558;42.700;23.360;2024-02-15T12:53:10;95674.72;;;12.81;48.48
3096;BME280;1558;42.700;23.360;2024-02-15T12:55:39;95659.50;;;12.32;48.31
3096;BME280;1558;42.700;23.360;2024-02-15T12:58:12;95675.28;;;12.30;49.19
3096;BME280;1558;42.700;23.360;2024-02-15T13:00:42;95682.53;;;12.17;49.31
3096;BME280;1558;42.700;23.360;2024-02-15T13:03:12;95678.75;;;11.48;49.67
3096;BME280;1558;42.700;23.360;2024-02-15T13:05:42;95688.97;;;11.34;51.11
3096;BME280;1558;42.700;23.360;2024-02-15T13:08:11;95682.03;;;12.24;50.62
3096;BME280;1558;42.700;23.360;2024-02-15T13:10:41;95675.50;;;12.70;50.54
3096;BME280;1558;42.700;23.360;2024-02-15T13:13:13;95688.16;;;12.33;48.96
3096;BME280;1558;42.700;23.360;2024-02-15T13:15:43;95691.19;;;11.70;49.79
3096;BME280;1558;42.700;23.360;2024-02-15T13:18:13;95683.91;;;11.32;50.91
3096;BME280;1558;42.700;23.360;2024-02-15T13:20:42;95691.91;;;11.20;51.52
3096;BME280;1558;42.700;23.360;2024-02-15T13:23:11;95686.06;;;11.47;51.93
3096;BME280;1558;42.700;23.360;2024-02-15T13:25:46;95685.06;;;12.02;50.79
3096;BME280;1558;42.700;23.360;2024-02-15T13:28:17;95674.09;;;11.57;50.80
3096;BME280;1558;42.700;23.360;2024-02-15T13:30:45;95688.22;;;11.33;50.96
3096;BME280;1558;42.700;23.360;2024-02-15T13:33:16;95678.13;;;11.22;51.87
3096;BME280;1558;42.700;23.360;2024-02-15T13:35:44;95675.53;;;11.25;51.52
3096;BME280;1558;42.700;23.360;2024-02-15T13:38:13;95681.75;;;11.17;52.23
3096;BME280;1558;42.700;23.360;2024-02-15T13:40:49;95685.06;;;11.31;52.29